createdAt,value
2018-09-09T00:01:55.805Z,101913.48
2018-09-09T00:04:24.339Z,101915.74
2018-09-09T00:06:52.821Z,101900.77
2018-09-09T00:09:26.564Z,101899.93
2018-09-09T00:11:55.318Z,101906.06
2018-09-09T00:14:23.836Z,101907.39
2018-09-09T00:16:52.423Z,101891.88
2018-09-09T00:19:20.994Z,101902.09
2018-09-09T00:21:49.757Z,101907.39
2018-09-09T00:24:18.223Z,101903.75
2018-09-09T00:26:46.787Z,101900.23
2018-09-09T00:29:15.333Z,101902.05
2018-09-09T00:31:43.968Z,101890.61
2018-09-09T00:34:12.501Z,101898.64
2018-09-09T00:36:41.068Z,101892.47
2018-09-09T00:39:09.648Z,101886.30
2018-09-09T00:41:38.149Z,101891.17
2018-09-09T00:44:06.701Z,101886.30
2018-09-09T00:46:36.251Z,101898.67
2018-09-09T00:49:10.196Z,101903.08
2018-09-09T00:51:43.962Z,101901.32
2018-09-09T00:54:12.521Z,101901.35
2018-09-09T00:56:40.951Z,101907.92
2018-09-09T00:59:09.487Z,101906.59
2018-09-09T01:01:37.943Z,101904.87
2018-09-09T01:04:06.485Z,101919.86
2018-09-09T01:06:35.023Z,101913.69
2018-09-09T01:09:09.097Z,101918.13
2018-09-09T01:11:37.632Z,101924.69
2018-09-09T01:14:06.221Z,101929.10
2018-09-09T01:16:34.802Z,101920.25
2018-09-09T01:19:03.378Z,101922.91
2018-09-09T01:21:31.854Z,101927.81
2018-09-09T01:24:00.439Z,101924.33
2018-09-09T01:26:28.861Z,101926.98
2018-09-09T01:28:57.417Z,101911.47
2018-09-09T01:31:47.526Z,101902.22
2018-09-09T01:34:19.764Z,101905.73
2018-09-09T01:36:48.240Z,101910.51
2018-09-09T01:39:16.721Z,101911.73
2018-09-09T01:41:45.210Z,101905.11
2018-09-09T01:44:13.733Z,101909.58
2018-09-09T01:46:42.248Z,101908.72
2018-09-09T01:49:10.856Z,101907.42
2018-09-09T01:51:39.317Z,101903.91
2018-09-09T01:54:07.954Z,101912.33
2018-09-09T01:56:36.542Z,101911.44
2018-09-09T01:59:05.240Z,101913.22
2018-09-09T02:01:33.682Z,101914.48
2018-09-09T02:04:02.170Z,101921.48
2018-09-09T02:06:41.453Z,101916.61
2018-09-09T02:09:10.032Z,101911.80
2018-09-09T02:11:38.573Z,101913.98
2018-09-09T02:14:07.036Z,101919.66
2018-09-09T02:16:35.524Z,101926.22
2018-09-09T02:19:04.009Z,101921.84
2018-09-09T02:21:32.482Z,101916.94
2018-09-09T02:24:01.363Z,101912.53
2018-09-09T02:26:29.844Z,101909.45
2018-09-09T02:28:58.336Z,101910.31
2018-09-09T02:31:26.836Z,101905.90
2018-09-09T02:33:55.280Z,101909.84
2018-09-09T02:36:23.970Z,101916.05
2018-09-09T02:38:52.484Z,101926.12
2018-09-09T02:41:44.693Z,101923.43
2018-09-09T02:44:13.126Z,101928.27
2018-09-09T02:46:41.801Z,101926.02
2018-09-09T02:49:10.460Z,101922.80
2018-09-09T02:51:38.951Z,101926.70
2018-09-09T02:54:07.435Z,101914.81
2018-09-09T02:56:35.953Z,101920.54
2018-09-09T02:59:04.488Z,101914.20
2018-09-09T03:01:32.969Z,101911.63
2018-09-09T03:04:01.455Z,101919.58
2018-09-09T03:06:29.938Z,101923.48
2018-09-09T03:08:58.403Z,101919.11
2018-09-09T03:11:26.917Z,101918.72
2018-09-09T03:13:55.347Z,101916.92
2018-09-09T03:16:50.274Z,101919.58
2018-09-09T03:19:18.769Z,101917.75
2018-09-09T03:21:47.562Z,101908.51
2018-09-09T03:24:16.053Z,101900.55
2018-09-09T03:26:44.629Z,101895.65
2018-09-09T03:29:13.187Z,101908.47
2018-09-09T03:31:41.737Z,101903.61
2018-09-09T03:34:10.251Z,101912.91
2018-09-09T03:36:38.774Z,101907.22
2018-09-09T03:39:09.398Z,101897.05
2018-09-09T03:41:38.222Z,101901.88
2018-09-09T03:44:06.926Z,101898.44
2018-09-09T03:46:35.658Z,101892.73
2018-09-09T03:49:04.164Z,101901.19
2018-09-09T03:51:32.713Z,101908.28
2018-09-09T03:54:01.139Z,101913.19
2018-09-09T03:56:29.715Z,101914.98
2018-09-09T03:58:58.166Z,101907.03
2018-09-09T04:01:26.742Z,101911.44
2018-09-09T04:03:55.244Z,101918.42
2018-09-09T04:06:24.225Z,101921.04
2018-09-09T04:08:52.736Z,101925.02
2018-09-09T04:11:21.285Z,101922.30
2018-09-09T04:13:49.701Z,101923.16
2018-09-09T04:16:18.250Z,101929.78
2018-09-09T04:18:46.789Z,101927.53
2018-09-09T04:21:15.302Z,101926.17
2018-09-09T04:23:43.716Z,101926.59
2018-09-09T04:26:12.156Z,101921.30
2018-09-09T04:28:40.645Z,101926.09
2018-09-09T04:31:09.130Z,101934.84
2018-09-09T04:33:37.622Z,101932.36
2018-09-09T04:36:06.095Z,101936.62
2018-09-09T04:38:34.589Z,101935.62
2018-09-09T04:41:03.117Z,101940.88
2018-09-09T04:43:31.590Z,101937.80
2018-09-09T04:46:00.168Z,101937.45
2018-09-09T04:48:28.735Z,101942.78
2018-09-09T04:50:57.295Z,101938.80
2018-09-09T04:53:25.733Z,101936.23
2018-09-09T04:55:54.274Z,101945.58
2018-09-09T04:58:22.962Z,101936.38
2018-09-09T05:00:51.441Z,101941.64
2018-09-09T05:03:20.780Z,101946.98
2018-09-09T05:05:49.216Z,101945.66
2018-09-09T05:08:17.722Z,101956.79
2018-09-09T05:10:46.164Z,101951.95
2018-09-09T05:13:14.882Z,101949.38
2018-09-09T05:15:43.566Z,101965.75
2018-09-09T05:18:12.529Z,101967.07
2018-09-09T05:20:41.028Z,101966.68
2018-09-09T05:23:09.509Z,101966.75
2018-09-09T05:25:38.011Z,101954.43
2018-09-09T05:28:06.528Z,101961.12
2018-09-09T05:30:35.056Z,101965.57
2018-09-09T05:33:03.590Z,101975.31
2018-09-09T05:35:32.029Z,101976.21
2018-09-09T05:38:00.604Z,101983.73
2018-09-09T05:40:29.245Z,101985.52
2018-09-09T05:42:57.767Z,101983.80
2018-09-09T05:45:26.314Z,101985.63
2018-09-09T05:47:54.840Z,101989.25
2018-09-09T05:50:23.332Z,101981.37
2018-09-09T05:52:51.805Z,101986.20
2018-09-09T05:55:20.297Z,101984.48
2018-09-09T05:57:48.814Z,101979.64
2018-09-09T06:00:21.046Z,101983.23
2018-09-09T06:02:50.543Z,101975.77
2018-09-09T06:05:19.257Z,101976.27
2018-09-09T06:07:47.865Z,101980.31
2018-09-09T06:10:16.316Z,101979.92
2018-09-09T06:12:44.953Z,101981.75
2018-09-09T06:15:13.525Z,101977.80
2018-09-09T06:17:41.962Z,101986.33
2018-09-09T06:20:10.452Z,101988.19
2018-09-09T06:22:38.911Z,101987.39
2018-09-09T06:25:07.411Z,101994.16
2018-09-09T06:27:36.085Z,101997.38
2018-09-09T06:30:17.981Z,101996.64
2018-09-09T06:32:46.532Z,101992.77
2018-09-09T06:35:15.050Z,102004.41
2018-09-09T06:37:56.742Z,102010.33
2018-09-09T06:40:25.213Z,102005.12
2018-09-09T06:42:53.849Z,102009.25
2018-09-09T06:45:22.501Z,102004.50
2018-09-09T06:47:51.072Z,102003.32
2018-09-09T06:50:19.563Z,102011.88
2018-09-09T06:52:48.069Z,102009.36
2018-09-09T06:55:16.535Z,102010.38
2018-09-09T06:57:45.122Z,102005.12
2018-09-09T07:00:13.623Z,102008.32
2018-09-09T07:02:42.152Z,102005.34
2018-09-09T07:05:10.697Z,102001.49
2018-09-09T07:07:39.241Z,102002.93
2018-09-09T07:10:07.727Z,102003.07
2018-09-09T07:12:36.295Z,101995.25
2018-09-09T07:15:04.898Z,101990.52
2018-09-09T07:17:33.376Z,101996.02
2018-09-09T07:20:01.847Z,101996.58
2018-09-09T07:22:30.441Z,101994.95
2018-09-09T07:24:58.953Z,101994.54
2018-09-09T07:27:27.421Z,101995.50
2018-09-09T07:29:55.985Z,101987.61
2018-09-09T07:32:24.452Z,101988.20
2018-09-09T07:34:52.972Z,101994.98
2018-09-09T07:37:21.515Z,101993.30
2018-09-09T07:39:49.936Z,101994.73
2018-09-09T07:42:18.375Z,101994.89
2018-09-09T07:44:47.689Z,101999.82
2018-09-09T07:47:16.153Z,101997.67
2018-09-09T07:49:44.657Z,101993.38
2018-09-09T07:52:13.167Z,101995.30
2018-09-09T07:54:41.831Z,101991.06
2018-09-09T07:57:10.416Z,101988.11
2018-09-09T07:59:38.888Z,101993.12
2018-09-09T08:02:07.653Z,101994.08
2018-09-09T08:04:36.465Z,101989.65
2018-09-09T08:07:05.067Z,102003.01
2018-09-09T08:09:33.734Z,102003.52
2018-09-09T08:12:02.281Z,102010.64
2018-09-09T08:14:30.899Z,102004.03
2018-09-09T08:16:59.363Z,102000.55
2018-09-09T08:19:27.928Z,101997.06
2018-09-09T08:21:57.048Z,102002.45
2018-09-09T08:24:25.572Z,102008.69
2018-09-09T08:26:54.133Z,102009.15
2018-09-09T08:29:22.709Z,102015.87
2018-09-09T08:31:51.207Z,102016.34
2018-09-09T08:34:19.733Z,102021.30
2018-09-09T08:36:48.280Z,102014.25
2018-09-09T08:39:16.844Z,102009.84
2018-09-09T08:41:45.392Z,102009.87
2018-09-09T08:44:13.923Z,102011.24
2018-09-09T08:46:42.410Z,102003.81
2018-09-09T08:49:10.912Z,102009.70
2018-09-09T08:51:39.468Z,102016.88
2018-09-09T08:54:07.996Z,102013.84
2018-09-09T08:56:36.520Z,102021.01
2018-09-09T08:59:05.211Z,102024.56
2018-09-09T09:01:33.634Z,102029.03
2018-09-09T09:04:02.080Z,102026.73
2018-09-09T09:06:30.574Z,102020.94
2018-09-09T09:09:01.182Z,102020.95
2018-09-09T09:11:29.795Z,102020.07
2018-09-09T09:13:58.261Z,102015.60
2018-09-09T09:16:26.698Z,102018.70
2018-09-09T09:18:55.152Z,102018.28
2018-09-09T09:21:23.641Z,102024.53
2018-09-09T09:23:52.104Z,102017.44
2018-09-09T09:26:20.672Z,102020.56
2018-09-09T09:28:49.278Z,102029.05
2018-09-09T09:31:17.853Z,102018.41
2018-09-09T09:33:46.473Z,102018.02
2018-09-09T09:36:15.125Z,102018.02
2018-09-09T09:38:43.582Z,102020.24
2018-09-09T09:41:12.501Z,102022.92
2018-09-09T09:43:40.962Z,102017.97
2018-09-09T09:46:09.478Z,102018.02
2018-09-09T09:48:37.959Z,102013.59
2018-09-09T09:51:06.548Z,102014.94
2018-09-09T09:53:35.118Z,102016.31
2018-09-09T09:56:03.617Z,102009.61
2018-09-09T09:58:32.134Z,102010.51
2018-09-09T10:01:01.661Z,102005.59
2018-09-09T10:03:30.147Z,102008.72
2018-09-09T10:05:58.832Z,102000.69
2018-09-09T10:08:27.246Z,102007.36
2018-09-09T10:10:55.836Z,102001.04
2018-09-09T10:13:24.577Z,102009.98
2018-09-09T10:15:53.114Z,101999.27
2018-09-09T10:18:21.693Z,102000.16
2018-09-09T10:20:50.219Z,102001.95
2018-09-09T10:23:18.705Z,101999.67
2018-09-09T10:25:47.258Z,101994.75
2018-09-09T10:28:15.781Z,101995.60
2018-09-09T10:30:45.295Z,102003.63
2018-09-09T10:33:13.865Z,102009.37
2018-09-09T10:35:42.336Z,102000.43
2018-09-09T10:38:10.834Z,102008.92
2018-09-09T10:40:39.276Z,102008.47
2018-09-09T10:43:07.828Z,102010.72
2018-09-09T10:45:36.383Z,102010.27
2018-09-09T10:48:04.998Z,102012.05
2018-09-09T10:50:35.805Z,102010.67
2018-09-09T10:53:04.354Z,102002.55
2018-09-09T10:55:32.863Z,102003.39
2018-09-09T10:58:01.337Z,102011.31
2018-09-09T11:00:29.821Z,102006.25
2018-09-09T11:02:58.303Z,102001.72
2018-09-09T11:05:27.001Z,101987.56
2018-09-09T11:07:55.638Z,101990.39
2018-09-09T11:10:24.100Z,101980.98
2018-09-09T11:12:52.555Z,101990.70
2018-09-09T11:15:21.172Z,101990.56
2018-09-09T11:17:49.795Z,102005.57
2018-09-09T11:20:18.389Z,102002.92
2018-09-09T11:22:46.889Z,102004.92
2018-09-09T11:25:15.361Z,101987.64
2018-09-09T11:27:43.922Z,101989.55
2018-09-09T11:30:12.656Z,101980.84
2018-09-09T11:32:41.231Z,101986.56
2018-09-09T11:35:09.830Z,101989.63
2018-09-09T11:37:38.366Z,101982.92
2018-09-09T11:40:07.584Z,101984.52
2018-09-09T11:42:36.375Z,101985.57
2018-09-09T11:45:04.937Z,101988.84
2018-09-09T11:47:33.532Z,101976.75
2018-09-09T11:50:02.054Z,101966.97
2018-09-09T11:52:31.024Z,101974.55
2018-09-09T11:54:59.794Z,101969.18
2018-09-09T11:57:28.296Z,101962.53
2018-09-09T11:59:57.348Z,101969.25
2018-09-09T12:02:25.891Z,101967.08
2018-09-09T12:04:54.564Z,101971.64
2018-09-09T12:07:23.310Z,101968.08
2018-09-09T12:09:51.832Z,101967.62
2018-09-09T12:12:20.648Z,101966.79
2018-09-09T12:14:49.168Z,101968.08
2018-09-09T12:17:17.684Z,101967.17
2018-09-09T12:19:46.269Z,101966.34
2018-09-09T12:22:15.053Z,101966.82
2018-09-09T12:24:43.519Z,101968.97
2018-09-09T12:27:12.006Z,101963.56
2018-09-09T12:29:40.644Z,101964.48
2018-09-09T12:32:09.204Z,101966.16
2018-09-09T12:34:37.869Z,101965.37
2018-09-09T12:37:06.458Z,101972.37
2018-09-09T12:39:34.936Z,101966.41
2018-09-09T12:42:03.521Z,101964.74
2018-09-09T12:45:08.283Z,101963.72
2018-09-09T12:47:42.053Z,101964.14
2018-09-09T12:50:10.549Z,101964.39
2018-09-09T12:52:39.344Z,101971.08
2018-09-09T12:55:08.041Z,101966.48
2018-09-09T12:57:36.646Z,101968.36
2018-09-09T13:00:05.675Z,101960.86
2018-09-09T13:02:34.228Z,101959.66
2018-09-09T13:05:02.757Z,101960.62
2018-09-09T13:07:31.598Z,101956.05
2018-09-09T13:10:00.169Z,101952.88
2018-09-09T13:12:32.767Z,101956.73
2018-09-09T13:15:01.286Z,101953.86
2018-09-09T13:17:29.822Z,101950.08
2018-09-09T13:19:58.775Z,101947.34
2018-09-09T13:22:27.340Z,101955.98
2018-09-09T13:24:55.897Z,101954.22
2018-09-09T13:27:24.426Z,101949.05
2018-09-09T13:29:52.878Z,101957.62
2018-09-09T13:32:21.590Z,101959.91
2018-09-09T13:34:50.261Z,101957.23
2018-09-09T13:37:26.207Z,101961.49
2018-09-09T13:40:00.505Z,101945.95
2018-09-09T13:42:28.945Z,101941.66
2018-09-09T13:44:57.518Z,101945.23
2018-09-09T13:47:26.237Z,101951.41
2018-09-09T13:49:54.830Z,101943.77
2018-09-09T13:52:23.383Z,101947.09
2018-09-09T13:54:51.947Z,101945.72
2018-09-09T13:57:20.519Z,101938.13
2018-09-09T13:59:49.008Z,101939.18
2018-09-09T14:02:17.485Z,101940.25
2018-09-09T14:04:46.067Z,101942.86
2018-09-09T14:07:14.556Z,101934.72
2018-09-09T14:09:43.303Z,101934.44
2018-09-09T14:12:11.875Z,101935.89
2018-09-09T14:14:40.429Z,101933.14
2018-09-09T14:17:09.069Z,101937.34
2018-09-09T14:19:37.622Z,101931.36
2018-09-09T14:22:06.210Z,101932.71
2018-09-09T14:24:34.724Z,101935.63
2018-09-09T14:27:03.232Z,101939.27
2018-09-09T14:29:31.762Z,101932.98
2018-09-09T14:32:00.354Z,101935.14
2018-09-09T14:34:28.821Z,101918.84
2018-09-09T14:36:57.359Z,101925.72
2018-09-09T14:42:40.377Z,101916.16
2018-09-09T14:45:08.927Z,101918.02
2018-09-09T14:47:37.365Z,101917.13
2018-09-09T14:50:06.009Z,101915.92
2018-09-09T14:52:34.460Z,101916.56
2018-09-09T14:55:03.624Z,101920.65
2018-09-09T14:57:32.130Z,101924.07
2018-09-09T15:00:00.737Z,101924.71
2018-09-09T15:02:29.431Z,101921.73
2018-09-09T15:04:57.977Z,101924.07
2018-09-09T15:07:27.248Z,101920.09
2018-09-09T15:09:55.702Z,101923.30
2018-09-09T15:12:24.235Z,101914.93
2018-09-09T15:14:52.660Z,101910.30
2018-09-09T15:17:21.229Z,101910.84
2018-09-09T15:19:49.989Z,101910.36
2018-09-09T15:22:18.456Z,101904.41
2018-09-09T15:24:46.932Z,101909.83
2018-09-09T15:27:15.644Z,101907.92
2018-09-09T15:29:44.220Z,101905.03
2018-09-09T15:32:12.696Z,101903.78
2018-09-09T15:34:41.286Z,101901.18
2018-09-09T15:37:09.851Z,101890.83
2018-09-09T15:39:38.371Z,101887.24
2018-09-09T15:42:07.020Z,101880.29
2018-09-09T15:44:35.609Z,101879.64
2018-09-09T15:47:04.104Z,101873.44
2018-09-09T15:49:32.654Z,101862.62
2018-09-09T15:52:03.365Z,101867.90
2018-09-09T15:54:31.784Z,101865.75
2018-09-09T15:57:00.274Z,101865.33
2018-09-09T15:59:28.860Z,101859.45
2018-09-09T16:01:57.313Z,101860.79
2018-09-09T16:04:25.817Z,101859.42
2018-09-09T16:06:54.376Z,101863.73
2018-09-09T16:09:22.974Z,101862.04
2018-09-09T16:11:51.551Z,101855.45
2018-09-09T16:14:20.046Z,101859.63
2018-09-09T16:16:48.481Z,101856.97
2018-09-09T16:19:16.952Z,101860.98
2018-09-09T16:21:45.689Z,101862.92
2018-09-09T16:24:14.195Z,101860.52
2018-09-09T16:26:42.771Z,101859.17
2018-09-09T16:29:11.377Z,101863.89
2018-09-09T16:31:39.933Z,101861.66
2018-09-09T16:34:08.411Z,101857.61
2018-09-09T16:36:36.874Z,101864.78
2018-09-09T16:39:06.736Z,101864.78
2018-09-09T16:41:41.425Z,101863.13
2018-09-09T16:44:10.062Z,101861.69
2018-09-09T16:46:38.702Z,101867.92
2018-09-09T16:49:07.186Z,101866.50
2018-09-09T16:51:35.753Z,101863.61
2018-09-09T16:54:04.291Z,101868.95
2018-09-09T16:56:32.835Z,101864.17
2018-09-09T16:59:01.276Z,101858.70
2018-09-09T17:01:29.783Z,101859.77
2018-09-09T17:03:58.247Z,101858.99
2018-09-09T17:06:26.752Z,101859.20
2018-09-09T17:08:55.318Z,101854.56
2018-09-09T17:11:23.911Z,101856.84
2018-09-09T17:13:52.439Z,101847.50
2018-09-09T17:16:20.990Z,101847.13
2018-09-09T17:18:49.606Z,101847.56
2018-09-09T17:21:18.061Z,101851.09
2018-09-09T17:23:46.629Z,101857.22
2018-09-09T17:26:15.214Z,101856.17
2018-09-09T17:28:43.695Z,101857.32
2018-09-09T17:31:12.185Z,101861.14
2018-09-09T17:33:40.628Z,101862.30
2018-09-09T17:36:09.342Z,101860.71
2018-09-09T17:39:12.970Z,101864.09
2018-09-09T17:41:41.488Z,101866.23
2018-09-09T17:44:09.976Z,101866.84
2018-09-09T17:46:38.507Z,101867.91
2018-09-09T17:49:12.772Z,101870.36
2018-09-09T17:51:41.345Z,101871.83
2018-09-09T17:54:09.939Z,101864.86
2018-09-09T17:56:38.462Z,101870.80
2018-09-09T17:59:07.223Z,101874.87
2018-09-09T18:01:35.771Z,101881.17
2018-09-09T18:10:47.450Z,101888.28
2018-09-09T18:16:58.988Z,101892.62
2018-09-09T18:19:27.487Z,101895.18
2018-09-09T18:21:56.311Z,101893.34
2018-09-09T18:24:24.881Z,101891.49
2018-09-09T18:26:53.480Z,101899.42
2018-09-09T18:33:15.990Z,101897.41
2018-09-09T18:35:45.129Z,101895.91
2018-09-09T18:38:14.633Z,101885.99
2018-09-09T18:40:43.592Z,101893.45
2018-09-09T18:43:12.389Z,101891.98
2018-09-09T18:45:41.001Z,101891.01
2018-09-09T18:48:09.798Z,101896.20
2018-09-09T18:50:38.244Z,101893.40
2018-09-09T18:53:06.982Z,101898.11
2018-09-09T18:55:35.550Z,101904.16
2018-09-09T18:58:04.122Z,101905.77
2018-09-09T19:00:33.614Z,101906.10
2018-09-09T19:03:02.213Z,101913.94
2018-09-09T19:05:30.965Z,101914.23
2018-09-09T19:07:59.610Z,101923.81
2018-09-09T19:10:28.288Z,101923.19
2018-09-09T19:12:56.948Z,101919.05
2018-09-09T19:15:40.730Z,101921.57
2018-09-09T19:18:09.267Z,101920.39
2018-09-09T19:20:37.791Z,101924.23
2018-09-09T19:23:19.039Z,101925.94
2018-09-09T19:25:48.917Z,101923.66
2018-09-09T19:28:17.535Z,101925.40
2018-09-09T19:30:46.152Z,101927.13
2018-09-09T19:33:14.692Z,101927.86
2018-09-09T19:35:43.308Z,101926.00
2018-09-09T19:38:11.748Z,101926.38
2018-09-09T19:44:02.475Z,101927.56
2018-09-09T19:46:31.225Z,101928.05
2018-09-09T19:48:59.823Z,101932.47
2018-09-09T19:51:28.480Z,101931.97
2018-09-09T19:53:57.129Z,101932.30
2018-09-09T19:56:25.679Z,101934.25
2018-09-09T19:58:54.198Z,101939.41
2018-09-09T20:01:22.814Z,101933.58
2018-09-09T20:03:51.369Z,101936.60
2018-09-09T20:13:11.411Z,101928.77
2018-09-09T20:15:40.360Z,101926.88
2018-09-09T20:18:08.974Z,101927.67
2018-09-09T20:20:37.434Z,101920.12
2018-09-09T20:23:06.202Z,101923.63
2018-09-09T20:25:34.863Z,101923.14
2018-09-09T20:28:03.358Z,101926.62
2018-09-09T20:30:31.881Z,101921.78
2018-09-09T20:33:00.337Z,101916.88
2018-09-09T20:35:28.831Z,101917.27
2018-09-09T20:37:57.307Z,101923.03
2018-09-09T20:40:38.796Z,101927.34
2018-09-09T20:43:07.275Z,101926.08
2018-09-09T20:45:35.754Z,101926.55
2018-09-09T20:48:04.340Z,101924.89
2018-09-09T20:50:32.819Z,101921.78
2018-09-09T20:53:01.372Z,101920.02
2018-09-09T20:55:29.847Z,101923.50
2018-09-09T20:58:01.721Z,101918.09
2018-09-09T21:00:30.208Z,101918.63
2018-09-09T21:02:58.732Z,101923.03
2018-09-09T21:05:27.576Z,101918.59
2018-09-09T21:07:56.042Z,101913.30
2018-09-09T21:10:24.539Z,101914.61
2018-09-09T21:12:53.045Z,101910.54
2018-09-09T21:15:21.503Z,101916.17
2018-09-09T21:17:50.037Z,101915.70
2018-09-09T21:20:18.499Z,101905.46
2018-09-09T21:22:46.982Z,101910.83
2018-09-09T21:25:15.452Z,101909.14
2018-09-09T21:28:09.624Z,101906.03
2018-09-09T21:30:38.111Z,101909.11
2018-09-09T21:33:06.846Z,101905.10
2018-09-09T21:35:35.392Z,101908.18
2018-09-09T21:38:03.864Z,101909.51
2018-09-09T21:40:32.414Z,101907.32
2018-09-09T21:43:00.902Z,101899.90
2018-09-09T21:45:29.382Z,101904.91
2018-09-09T21:47:57.842Z,101899.17
2018-09-09T21:50:26.387Z,101895.66
2018-09-09T21:52:55.097Z,101892.97
2018-09-09T21:56:10.560Z,101891.28
2018-09-09T21:58:39.049Z,101888.59
2018-09-09T22:01:12.692Z,101888.70
2018-09-09T22:03:41.130Z,101884.75
2018-09-09T22:06:09.804Z,101881.77
2018-09-09T22:08:38.311Z,101882.82
2018-09-09T22:11:06.943Z,101882.48
2018-09-09T22:13:35.615Z,101879.92
2018-09-09T22:16:04.163Z,101881.74
2018-09-09T22:18:32.580Z,101873.81
2018-09-09T22:21:01.240Z,101877.41
2018-09-09T22:23:29.712Z,101879.41
2018-09-09T22:25:58.553Z,101876.48
2018-09-09T22:28:27.225Z,101880.06
2018-09-09T22:30:55.652Z,101877.08
2018-09-09T22:33:24.091Z,101874.45
2018-09-09T22:35:52.552Z,101885.94
2018-09-09T22:38:21.582Z,101876.16
2018-09-09T22:40:50.022Z,101874.30
2018-09-09T22:43:20.283Z,101878.27
2018-09-09T22:45:50.944Z,101880.03
2018-09-09T22:48:20.236Z,101879.58
2018-09-09T22:50:49.174Z,101879.08
2018-09-09T22:53:17.833Z,101881.16
2018-09-09T22:55:46.253Z,101878.45
2018-09-09T22:58:14.709Z,101882.09
2018-09-09T23:00:43.203Z,101880.76
2018-09-09T23:03:12.086Z,101882.09
2018-09-09T23:05:40.686Z,101878.11
2018-09-09T23:08:09.068Z,101880.21
2018-09-09T23:10:37.512Z,101871.70
2018-09-09T23:13:08.165Z,101874.30
2018-09-09T23:15:36.844Z,101876.09
2018-09-09T23:18:12.700Z,101866.53
2018-09-09T23:20:41.192Z,101869.68
2018-09-09T23:23:09.660Z,101868.30
2018-09-09T23:25:38.089Z,101869.62
2018-09-09T23:28:06.634Z,101865.99
2018-09-09T23:30:35.103Z,101869.86
2018-09-09T23:33:03.584Z,101865.76
2018-09-09T23:35:32.169Z,101866.11
2018-09-09T23:38:00.804Z,101870.36
2018-09-09T23:40:29.375Z,101869.34
2018-09-09T23:42:57.852Z,101870.61
2018-09-09T23:45:26.295Z,101867.45
2018-09-09T23:47:54.805Z,101882.05
2018-09-09T23:50:23.293Z,101873.17
2018-09-09T23:52:51.717Z,101877.95
2018-09-09T23:55:20.227Z,101879.02
2018-09-09T23:57:48.734Z,101874.41
